Tonasket, WA

2:20 AM PDT on October 21, 2014 (GMT -0700)
Sinlahekin Wildlife Area | Change Station
CLOSE
Current Station
Personal Weather Station
Location: Loomis, WA
Elevation: 1539 ft
Nearby Weather Stations

Elev 1539 ft 48.75 °N, 119.65 °W | Updated 26 seconds ago

Overcast
Overcast
52.9 °F
Feels Like 52.9 °F
N
2.0
Wind Variable Wind from SSE
Gusts 4.0 mph

Today
High -- | Low -- °F
--% Chance of Precip.
Yesterday
High -- | Low -- °F
Precip. -- in
7:27 AM 5:56 PM
Waning Crescent, 6% visible
Pressure 29.81 in
Visibility 10.0 miles
Clouds Mostly Cloudy 2700 ft
Overcast 3200 ft
Dew Point 49 °F
Humidity 87%
Rainfall 0.04 in
Snow Depth Not available.
UV 0.0 out of 12
Pollen 2.90 out of 12
Air Quality Not available.
Flu Activity Sporadic
METAR KOMK 210853Z AUTO 16007KT 10SM BKN027 OVC032 12/09 A2980 RMK AO2 SLP092 T01170089 53008

More Conditions Fewer Conditions

Pressure 29.81 in
Visibility 10.0 miles
Clouds Mostly Cloudy 2700 ft
Overcast 3200 ft
Dew Point 49 °F
Humidity 87%
Rainfall 0.04 in
Snow Depth Not available.
UV 0.0 out of 12
Pollen 2.90 out of 12
Air Quality Not available.
Flu Activity Sporadic
METAR KOMK 210853Z AUTO 16007KT 10SM BKN027 OVC032 12/09 A2980 RMK AO2 SLP092 T01170089 53008

More Conditions Fewer Conditions

10-Day Weather Forecast

Almanac

Astronomy

Oct. 21, 2014 Rise Set
Actual Time 7:27 AM PDT 5:56 PM PDT
Civil Twilight 6:54 AM PDT 6:28 PM PDT
Nautical Twilight 6:18 AM PDT 7:04 PM PDT
Astronomical Twilight 5:41 AM PDT 7:41 PM PDT
Moon 5:05 AM PDT 5:01 PM PDT
Length of Visible Light 11h 33m
Length of Day
10h 29m
Tomorrow will be 3m 24s shorter.
Waning Crescent, 6% of the Moon is Illuminated
Today
Waning Crescent
Oct 23
New
Oct 30
First Quarter
Nov 6
Full
Nov 14
Last Quarter

Today's Extremes

State Highs State Lows

Community

WunderPhotos

Upload Photos

1,763,619 photos uploaded!

Nearby

Snow Depth

Station Depth Elevation
Moses Mountain 0 in 5300 ft
Harts Pass 0 in 6500 ft
Park Creek Ridge 0 in 4600 ft
Pope Ridge 1 in 3540 ft
Lyman Lake 0 in 5900 ft

Earthquake Activity

City Distance Mag. Time & Date
No recent earthquake activity has been reported nearby.
Minimum magnitude displayed is 2.5.

Coastal Water Temperatures

Place Temperature
No Stations Reporting

Nearby Weather Stations